createdAt,value
2023-02-18T00:01:34.564Z,79.1
2023-02-18T00:03:34.507Z,79.1
2023-02-18T00:05:34.477Z,79.4
2023-02-18T00:07:34.466Z,79.8
2023-02-18T00:09:34.493Z,79.5
2023-02-18T00:11:35.540Z,78.8
2023-02-18T00:13:34.573Z,77.1
2023-02-18T00:15:34.535Z,76.9
2023-02-18T00:17:34.470Z,76.7
2023-02-18T00:19:34.527Z,75.6
2023-02-18T00:21:34.617Z,77.1
2023-02-18T00:23:34.663Z,76.5
2023-02-18T00:25:34.539Z,76.5
2023-02-18T00:27:34.485Z,77.2
2023-02-18T00:29:19.031Z,77.2
2023-02-18T00:31:34.577Z,76.8
2023-02-18T00:33:34.500Z,75.7
2023-02-18T00:35:34.488Z,76.6
2023-02-18T00:37:35.513Z,76.3
2023-02-18T00:39:34.420Z,73
2023-02-18T00:41:34.467Z,74
2023-02-18T00:43:34.585Z,73.6
2023-02-18T00:45:34.475Z,72.1
2023-02-18T00:47:34.555Z,71.2
2023-02-18T00:49:34.511Z,70.7
2023-02-18T00:51:34.568Z,70.7
2023-02-18T00:53:34.515Z,71.7
2023-02-18T00:55:49.125Z,71.2
2023-02-18T00:57:35.589Z,70.5
2023-02-18T00:59:34.486Z,71.5
2023-02-18T01:01:36.370Z,71.2
2023-02-18T01:03:34.473Z,70.9
2023-02-18T01:05:34.401Z,69.8
2023-02-18T01:07:34.459Z,70.2
2023-02-18T01:09:34.396Z,69
2023-02-18T01:11:34.526Z,67.7
2023-02-18T01:13:34.470Z,66.6
2023-02-18T01:15:34.531Z,67.4
2023-02-18T01:17:34.384Z,65.8
2023-02-18T01:19:34.402Z,65.9
2023-02-18T01:21:35.663Z,66.4
2023-02-18T01:23:34.386Z,67.5
2023-02-18T01:25:34.382Z,65.5
2023-02-18T01:27:35.500Z,64.3
2023-02-18T01:29:35.640Z,63.9
2023-02-18T01:31:34.499Z,63.6
2023-02-18T01:33:34.408Z,64.2
2023-02-18T01:35:34.426Z,63.7
2023-02-18T01:37:34.368Z,63.3
2023-02-18T01:39:34.436Z,62.9
2023-02-18T01:41:34.415Z,60.9
2023-02-18T01:43:34.393Z,60.8
2023-02-18T01:45:34.377Z,60.9
2023-02-18T01:47:34.343Z,59.3
2023-02-18T01:49:34.354Z,59.8
2023-02-18T01:51:34.344Z,59.1
2023-02-18T01:53:34.488Z,58.4
2023-02-18T01:55:34.353Z,59.4
2023-02-18T01:57:34.324Z,57.8
2023-02-18T01:59:34.326Z,57.9
2023-02-18T02:01:35.466Z,57.9
2023-02-18T02:03:34.324Z,58.3
2023-02-18T02:05:34.328Z,58
2023-02-18T02:07:34.331Z,58.8
2023-02-18T02:09:34.377Z,59.4
2023-02-18T02:11:34.356Z,58.4
2023-02-18T02:13:34.361Z,58.2
2023-02-18T02:15:34.334Z,57.2
2023-02-18T02:17:34.498Z,57.3
2023-02-18T02:19:35.775Z,57.7
2023-02-18T02:21:34.339Z,57.2
2023-02-18T02:23:34.921Z,56.7
2023-02-18T02:25:34.297Z,57.4
2023-02-18T02:27:34.325Z,57.7
2023-02-18T02:29:34.329Z,57.3
2023-02-18T02:31:34.393Z,57
2023-02-18T02:33:34.317Z,56.7
2023-02-18T02:35:35.334Z,57.5
2023-02-18T02:37:34.329Z,57.3
2023-02-18T02:39:34.369Z,57.3
2023-02-18T02:41:34.360Z,56.1
2023-02-18T02:43:35.584Z,55.8
2023-02-18T02:45:34.325Z,55.3
2023-02-18T02:47:34.308Z,56
2023-02-18T02:49:34.255Z,55.8
2023-02-18T02:51:34.322Z,55.7
2023-02-18T02:53:34.305Z,56.3
2023-02-18T02:55:34.268Z,56.1
2023-02-18T02:57:34.332Z,56
2023-02-18T02:59:34.251Z,56.4
2023-02-18T03:01:34.487Z,55.9
2023-02-18T03:03:34.233Z,55.8
2023-02-18T03:05:34.325Z,55.7
2023-02-18T03:07:34.909Z,55.5
2023-02-18T03:09:34.315Z,55.3
2023-02-18T03:11:34.235Z,56.4
2023-02-18T03:13:34.231Z,55.6
2023-02-18T03:15:35.512Z,55.2
2023-02-18T03:17:34.220Z,55.5
2023-02-18T03:19:34.257Z,56.3
2023-02-18T03:21:34.297Z,55
2023-02-18T03:23:34.249Z,55.6
2023-02-18T03:25:34.429Z,56
2023-02-18T03:27:34.231Z,55.5
2023-02-18T03:29:34.223Z,55.9
2023-02-18T03:31:34.408Z,56.4
2023-02-18T03:33:34.258Z,56.9
2023-02-18T03:35:34.270Z,57.1
2023-02-18T03:37:34.361Z,57.8
2023-02-18T03:39:34.217Z,58
2023-02-18T03:41:34.200Z,57.7
2023-02-18T03:43:34.246Z,57.6
2023-02-18T03:45:34.334Z,56.8
2023-02-18T03:47:34.212Z,57
2023-02-18T03:49:34.197Z,57.4
2023-02-18T03:51:34.228Z,57
2023-02-18T03:53:34.197Z,57.3
2023-02-18T03:55:34.284Z,56.4
2023-02-18T03:57:34.262Z,55.8
2023-02-18T03:59:34.198Z,55.7
2023-02-18T04:01:34.255Z,56.4
2023-02-18T04:03:34.255Z,56.3
2023-02-18T04:05:34.178Z,56.2
2023-02-18T04:07:34.261Z,56.4
2023-02-18T04:09:34.175Z,56.7
2023-02-18T04:11:34.227Z,55.5
2023-02-18T04:13:44.556Z,55.5
2023-02-18T04:15:34.152Z,55.2
2023-02-18T04:17:35.632Z,54.6
2023-02-18T04:19:34.182Z,54.9
2023-02-18T04:21:37.143Z,54.5
2023-02-18T04:23:34.258Z,54.3
2023-02-18T04:25:34.149Z,53.7
2023-02-18T04:27:35.505Z,53.7
2023-02-18T04:29:34.157Z,52.7
2023-02-18T04:31:34.304Z,51.4
2023-02-18T04:33:36.733Z,52.6
2023-02-18T04:35:34.166Z,53.4
2023-02-18T04:37:34.136Z,52.6
2023-02-18T04:39:34.213Z,52
2023-02-18T04:41:34.216Z,52.1
2023-02-18T04:43:34.159Z,51.7
2023-02-18T04:45:34.221Z,52.5
2023-02-18T04:47:34.164Z,52.3
2023-02-18T04:49:34.177Z,52.1
2023-02-18T04:51:34.161Z,52.2
2023-02-18T04:53:34.132Z,52.7
2023-02-18T04:55:34.177Z,53.3
2023-02-18T04:57:34.121Z,52.9
2023-02-18T04:59:34.473Z,53.7
2023-02-18T05:01:34.210Z,54.4
2023-02-18T05:03:34.105Z,54.4
2023-02-18T05:05:34.117Z,53.5
2023-02-18T05:07:34.147Z,52.4
2023-02-18T05:09:34.135Z,52.9
2023-02-18T05:11:34.139Z,53.3
2023-02-18T05:13:34.192Z,53.1
2023-02-18T05:15:34.199Z,53.9
2023-02-18T05:17:34.088Z,54.9
2023-02-18T05:19:34.343Z,53.3
2023-02-18T05:21:34.231Z,53.4
2023-02-18T05:23:34.294Z,53.5
2023-02-18T05:25:34.092Z,53.3
2023-02-18T05:27:34.189Z,52.5
2023-02-18T05:29:34.105Z,52.3
2023-02-18T05:31:34.205Z,52.4
2023-02-18T05:33:34.185Z,52.8
2023-02-18T05:35:34.186Z,52.8
2023-02-18T05:37:34.151Z,53
2023-02-18T05:39:44.716Z,53.6
2023-02-18T05:41:34.099Z,52
2023-02-18T05:43:34.092Z,52.2
2023-02-18T05:45:34.059Z,52.2
2023-02-18T05:47:34.092Z,52.6
2023-02-18T05:49:34.129Z,53.2
2023-02-18T05:51:34.253Z,53.7
2023-02-18T05:53:34.144Z,53.1
2023-02-18T05:55:34.051Z,53.2
2023-02-18T05:57:34.081Z,53.5
2023-02-18T05:59:34.100Z,53
2023-02-18T06:01:34.040Z,53.2
2023-02-18T06:03:35.561Z,53.4
2023-02-18T06:05:34.186Z,54.3
2023-02-18T06:07:34.037Z,54.4
2023-02-18T06:09:34.043Z,53.5
2023-02-18T06:11:34.026Z,53.4
2023-02-18T06:13:34.084Z,52.8
2023-02-18T06:15:34.000Z,53
2023-02-18T06:17:34.186Z,53.9
2023-02-18T06:19:34.072Z,53.4
2023-02-18T06:21:34.109Z,53.5
2023-02-18T06:23:34.182Z,54.4
2023-02-18T06:25:38.483Z,53.5
2023-02-18T06:27:34.058Z,53.4
2023-02-18T06:29:34.044Z,54.4
2023-02-18T06:31:34.083Z,54
2023-02-18T06:33:34.079Z,54.7
2023-02-18T06:35:34.016Z,54.6
2023-02-18T06:37:34.094Z,53.9
2023-02-18T06:39:34.048Z,54.2
2023-02-18T06:41:34.038Z,54.4
2023-02-18T06:43:34.003Z,55.2
2023-02-18T06:45:33.998Z,55
2023-02-18T06:47:34.024Z,54.4
2023-02-18T06:49:34.076Z,53.6
2023-02-18T06:51:34.147Z,54.1
2023-02-18T06:53:34.129Z,54.3
2023-02-18T06:55:36.761Z,54.5
2023-02-18T06:57:34.083Z,54
2023-02-18T06:59:34.036Z,54.8
2023-02-18T07:01:36.383Z,54.6
2023-02-18T07:03:34.045Z,55.5
2023-02-18T07:05:33.986Z,55.3
2023-02-18T07:07:34.060Z,54.6
2023-02-18T07:09:33.988Z,54.3
2023-02-18T07:11:35.085Z,54.5
2023-02-18T07:13:33.988Z,54.2
2023-02-18T07:15:33.936Z,53.6
2023-02-18T07:17:33.942Z,53.9
2023-02-18T07:19:33.910Z,54.1
2023-02-18T07:21:33.946Z,54.1
2023-02-18T07:23:34.102Z,53.6
2023-02-18T07:25:38.371Z,54
2023-02-18T07:27:33.901Z,53.9
2023-02-18T07:29:33.914Z,53.6
2023-02-18T07:31:34.064Z,53.6
2023-02-18T07:33:34.006Z,54.2
2023-02-18T07:35:33.929Z,54
2023-02-18T07:37:33.958Z,53.8
2023-02-18T07:39:33.921Z,53.2
2023-02-18T07:41:33.885Z,54.4
2023-02-18T07:43:33.998Z,54.7
2023-02-18T07:45:33.969Z,54.4
2023-02-18T07:47:33.925Z,54.5
2023-02-18T07:49:33.949Z,54.4
2023-02-18T07:51:33.937Z,54.3
2023-02-18T07:53:33.957Z,54.4
2023-02-18T07:55:33.901Z,54.2
2023-02-18T07:57:34.047Z,54
2023-02-18T07:59:33.972Z,53.4
2023-02-18T08:01:33.942Z,54.2
2023-02-18T08:03:33.963Z,53.2
2023-02-18T08:05:33.882Z,52.5
2023-02-18T08:07:33.953Z,51.9
2023-02-18T08:09:36.439Z,51.3
2023-02-18T08:11:33.969Z,51.8
2023-02-18T08:13:33.855Z,51.5
2023-02-18T08:15:35.222Z,51.5
2023-02-18T08:17:33.886Z,51.3
2023-02-18T08:19:33.909Z,51.8
2023-02-18T08:21:33.904Z,51.4
2023-02-18T08:23:33.848Z,52
2023-02-18T08:25:33.892Z,51.3
2023-02-18T08:27:33.869Z,51.3
2023-02-18T08:29:34.007Z,51.9
2023-02-18T08:31:34.051Z,52.1
2023-02-18T08:33:38.129Z,52.6
2023-02-18T08:35:33.839Z,52.2
2023-02-18T08:37:51.905Z,51.8
2023-02-18T08:39:35.296Z,52.4
2023-02-18T08:41:33.880Z,52.9
2023-02-18T08:43:33.867Z,52.8
2023-02-18T08:45:35.775Z,53
2023-02-18T08:48:13.819Z,53.3
2023-02-18T08:49:33.888Z,52.9
2023-02-18T08:51:34.486Z,52.7
2023-02-18T08:53:33.792Z,53.4
2023-02-18T08:55:33.808Z,53.4
2023-02-18T08:57:33.808Z,53.5
2023-02-18T08:59:33.830Z,53.2
2023-02-18T09:01:33.968Z,53.4
2023-02-18T09:03:33.933Z,53.5
2023-02-18T09:05:33.969Z,53
2023-02-18T09:07:33.797Z,53.6
2023-02-18T09:09:33.891Z,53.7
2023-02-18T09:11:34.923Z,53.7
2023-02-18T09:13:33.817Z,54.5
2023-02-18T09:15:35.134Z,54.1
2023-02-18T09:17:33.825Z,53.9
2023-02-18T09:19:33.865Z,54.5
2023-02-18T09:21:33.947Z,54.4
2023-02-18T09:23:33.844Z,54.3
2023-02-18T09:25:33.823Z,53.8
2023-02-18T09:27:33.796Z,53.4
2023-02-18T09:29:33.823Z,53.2
2023-02-18T09:31:33.866Z,53.1
2023-02-18T09:33:33.936Z,52.8
2023-02-18T09:35:33.780Z,52.4
2023-02-18T09:37:34.095Z,51.5
2023-02-18T09:39:33.804Z,51
2023-02-18T09:41:36.317Z,51.7
2023-02-18T09:43:33.753Z,52.2
2023-02-18T09:45:33.825Z,51.8
2023-02-18T09:47:33.902Z,51.1
2023-02-18T09:49:33.815Z,51.8
2023-02-18T09:51:33.768Z,51.9
2023-02-18T09:53:33.795Z,51.7
2023-02-18T09:55:33.827Z,51.6
2023-02-18T09:57:33.788Z,51.2
2023-02-18T09:59:33.845Z,51.4
2023-02-18T10:01:33.828Z,52
2023-02-18T10:03:33.980Z,52.4
2023-02-18T10:05:33.784Z,52.2
2023-02-18T10:07:33.867Z,52.5
2023-02-18T10:09:34.044Z,51.4
2023-02-18T10:11:33.976Z,51.5
2023-02-18T10:13:33.786Z,51.9
2023-02-18T10:15:33.802Z,52.5
2023-02-18T10:17:33.758Z,52.7
2023-02-18T10:19:33.784Z,53.1
2023-02-18T10:21:33.764Z,52.9
2023-02-18T10:23:33.668Z,53.1
2023-02-18T10:25:33.789Z,53.5
2023-02-18T10:27:33.778Z,53.9
2023-02-18T10:29:33.684Z,54.5
2023-02-18T10:31:33.974Z,54.5
2023-02-18T10:33:33.693Z,54.7
2023-02-18T10:35:33.728Z,54.7
2023-02-18T10:37:33.684Z,54.7
2023-02-18T10:39:33.737Z,54.9
2023-02-18T10:41:34.066Z,55.1
2023-02-18T10:43:33.707Z,54.1
2023-02-18T10:45:33.921Z,55
2023-02-18T10:47:33.711Z,55.4
2023-02-18T10:49:33.685Z,55.6
2023-02-18T10:51:33.801Z,54.7
2023-02-18T10:53:33.798Z,54.7
2023-02-18T10:55:33.818Z,54.8
2023-02-18T10:57:33.665Z,54.8
2023-02-18T10:59:33.707Z,55
2023-02-18T11:01:33.742Z,55.3
2023-02-18T11:03:33.663Z,55.1
2023-02-18T11:05:34.924Z,55.4
2023-02-18T11:07:33.633Z,55.4
2023-02-18T11:09:33.657Z,54.8
2023-02-18T11:11:33.768Z,55.5
2023-02-18T11:13:33.753Z,55.4
2023-02-18T11:15:37.989Z,56.1
2023-02-18T11:17:33.827Z,55
2023-02-18T11:19:33.869Z,55.2
2023-02-18T11:21:33.699Z,55.4
2023-02-18T11:23:33.805Z,55
2023-02-18T11:25:33.781Z,54.5
2023-02-18T11:27:35.097Z,55.2
2023-02-18T11:29:33.615Z,55.7
2023-02-18T11:31:33.713Z,55.9
2023-02-18T11:33:33.763Z,56
2023-02-18T11:35:33.623Z,55.8
2023-02-18T11:37:33.945Z,55.7
2023-02-18T11:39:33.765Z,55.8
2023-02-18T11:41:33.740Z,55.6
2023-02-18T11:43:33.751Z,56.4
2023-02-18T11:45:33.847Z,56.6
2023-02-18T11:47:33.739Z,56.7
2023-02-18T11:49:33.759Z,56.7
2023-02-18T11:51:34.855Z,56.1
2023-02-18T11:53:34.860Z,56
2023-02-18T11:55:34.985Z,55.7
2023-02-18T11:57:34.980Z,54.7
2023-02-18T11:59:34.857Z,54.4
2023-02-18T12:01:33.703Z,54.4
2023-02-18T12:03:35.211Z,54.8
2023-02-18T12:05:33.678Z,54.8
2023-02-18T12:07:33.622Z,55.1
2023-02-18T12:09:34.964Z,54.2
2023-02-18T12:11:34.010Z,54.2
2023-02-18T12:13:36.500Z,54.4
2023-02-18T12:15:34.162Z,54.2
2023-02-18T12:17:33.659Z,54.5
2023-02-18T12:19:33.764Z,54
2023-02-18T12:21:34.866Z,53.4
2023-02-18T12:23:34.842Z,53.9
2023-02-18T12:25:34.789Z,54.3
2023-02-18T12:27:33.558Z,54.5
2023-02-18T12:29:36.127Z,54.5
2023-02-18T12:31:33.673Z,54.7
2023-02-18T12:34:48.352Z,54.4
2023-02-18T12:36:47.674Z,54.6
2023-02-18T12:38:47.658Z,54.8
2023-02-18T12:40:47.652Z,53.9
2023-02-18T12:42:47.628Z,53.9
2023-02-18T12:44:47.638Z,53.6
2023-02-18T12:46:47.637Z,54.3
2023-02-18T12:48:47.640Z,54.6
2023-02-18T12:50:47.621Z,54.5
2023-02-18T12:52:47.616Z,54.2
2023-02-18T12:54:47.592Z,54
2023-02-18T12:56:47.625Z,53.9
2023-02-18T12:58:47.663Z,54.1
2023-02-18T13:00:47.699Z,54.1
2023-02-18T13:02:47.616Z,54.7
2023-02-18T13:04:47.601Z,54.5
2023-02-18T13:06:48.782Z,53.2
2023-02-18T13:08:47.606Z,53.2
2023-02-18T13:10:47.600Z,53.5
2023-02-18T13:12:47.575Z,54.1
2023-02-18T13:14:47.602Z,54
2023-02-18T13:16:47.593Z,54.6
2023-02-18T13:18:47.624Z,55.2
2023-02-18T13:20:47.588Z,55.3
2023-02-18T13:22:47.567Z,54.5
2023-02-18T13:24:47.577Z,54.6
2023-02-18T13:26:47.575Z,55.1
2023-02-18T13:28:47.568Z,54.9
2023-02-18T13:30:47.586Z,55
2023-02-18T13:32:47.594Z,54.9
2023-02-18T13:34:47.592Z,54.2
2023-02-18T13:36:47.538Z,54.3
2023-02-18T13:38:47.551Z,54
2023-02-18T13:40:47.538Z,54.8
2023-02-18T13:42:47.522Z,53.6
2023-02-18T13:44:47.562Z,53.7
2023-02-18T13:46:47.520Z,53.3
2023-02-18T13:48:47.536Z,53
2023-02-18T13:50:47.541Z,52.2
2023-02-18T13:52:47.544Z,52.6
2023-02-18T13:54:47.536Z,53.8
2023-02-18T13:56:47.538Z,52.9
2023-02-18T13:58:47.523Z,53.1
2023-02-18T14:00:47.651Z,51.9
2023-02-18T14:02:48.779Z,50.6
2023-02-18T14:04:47.497Z,50.5
2023-02-18T14:06:47.531Z,50.2
2023-02-18T14:08:47.548Z,49.8
2023-02-18T14:10:48.621Z,49.9
2023-02-18T14:12:47.481Z,49.5
2023-02-18T14:14:47.524Z,49.8
2023-02-18T14:16:47.550Z,49.5
2023-02-18T14:18:47.502Z,49.7
2023-02-18T14:20:47.481Z,48.9
2023-02-18T14:22:47.494Z,48.7
2023-02-18T14:24:47.508Z,50.1
2023-02-18T14:26:47.516Z,49.7
2023-02-18T14:28:47.540Z,50.4
2023-02-18T14:30:47.630Z,51
2023-02-18T14:32:47.689Z,49.5
2023-02-18T14:34:50.148Z,48.2
2023-02-18T14:36:52.167Z,48.8
2023-02-18T14:38:48.541Z,47.7
2023-02-18T14:40:47.671Z,47.4
2023-02-18T14:42:47.560Z,47.4
2023-02-18T14:44:47.538Z,47.8
2023-02-18T14:46:47.479Z,47.7
2023-02-18T14:48:48.959Z,47.9
2023-02-18T14:50:49.353Z,47.4
2023-02-18T14:52:47.499Z,47.1
2023-02-18T14:54:47.429Z,47.5
2023-02-18T14:56:48.742Z,47.1
2023-02-18T14:58:47.484Z,47.4
2023-02-18T15:00:47.475Z,47.8
2023-02-18T15:02:47.510Z,47.8
2023-02-18T15:04:47.514Z,47.8
2023-02-18T15:06:47.502Z,46.3
2023-02-18T15:08:47.513Z,46
2023-02-18T15:10:47.443Z,46.1
2023-02-18T15:12:47.424Z,46.5
2023-02-18T15:14:47.458Z,46.6
2023-02-18T15:16:47.433Z,47.1
2023-02-18T15:18:48.881Z,47.3
2023-02-18T15:20:47.435Z,46.7
2023-02-18T15:22:47.447Z,47.4
2023-02-18T15:24:47.473Z,47.3
2023-02-18T15:26:48.710Z,46.4
2023-02-18T15:28:47.483Z,46.7
2023-02-18T15:30:47.429Z,47.1
2023-02-18T15:32:47.400Z,46.6
2023-02-18T15:34:47.435Z,47.1
2023-02-18T15:36:47.420Z,47.4
2023-02-18T15:38:47.386Z,46.7
2023-02-18T15:40:47.400Z,46
2023-02-18T15:42:47.348Z,46.3
2023-02-18T15:44:47.370Z,47.2
2023-02-18T15:46:47.451Z,47.1
2023-02-18T15:48:47.361Z,46.5
2023-02-18T15:50:47.395Z,46.2
2023-02-18T15:52:48.641Z,45.9
2023-02-18T15:54:47.393Z,46.3
2023-02-18T15:56:47.437Z,45.9
2023-02-18T15:58:47.408Z,45.9
2023-02-18T16:00:47.408Z,46.6
2023-02-18T16:02:47.333Z,46.6
2023-02-18T16:04:47.424Z,46.6
2023-02-18T16:06:47.350Z,46.3
2023-02-18T16:08:47.370Z,47
2023-02-18T16:10:47.380Z,47.6
2023-02-18T16:12:47.387Z,47.2
2023-02-18T16:14:47.354Z,47.9
2023-02-18T16:16:47.343Z,47.7
2023-02-18T16:18:47.416Z,48.4
2023-02-18T16:20:47.386Z,48.7
2023-02-18T16:22:48.919Z,48.9
2023-02-18T16:24:48.452Z,48.1
2023-02-18T16:26:47.368Z,47.2
2023-02-18T16:29:11.605Z,47.6
2023-02-18T16:31:13.301Z,45.2
2023-02-18T16:32:47.357Z,47.2
2023-02-18T16:34:48.686Z,47.7
2023-02-18T16:36:47.401Z,46
2023-02-18T16:38:47.354Z,46.8
2023-02-18T16:40:47.327Z,46.8
2023-02-18T16:42:47.297Z,46.3
2023-02-18T16:44:48.586Z,45.7
2023-02-18T16:46:47.317Z,45.2
2023-02-18T16:48:47.444Z,45.6
2023-02-18T16:50:47.384Z,45.3
2023-02-18T16:52:47.280Z,45
2023-02-18T16:54:47.316Z,44.4
2023-02-18T16:56:47.285Z,44.5
2023-02-18T16:59:10.127Z,43.3
2023-02-18T17:00:47.621Z,45.5
2023-02-18T17:02:47.269Z,45.6
2023-02-18T17:04:47.332Z,45.5
2023-02-18T17:06:47.419Z,44.9
2023-02-18T17:08:47.281Z,45.9
2023-02-18T17:10:47.279Z,46.6
2023-02-18T17:12:47.364Z,45.4
2023-02-18T17:14:47.278Z,45.9
2023-02-18T17:16:47.312Z,45.8
2023-02-18T17:18:47.299Z,45.6
2023-02-18T17:20:47.372Z,45.9
2023-02-18T17:22:48.546Z,45
2023-02-18T17:24:48.611Z,46.4
2023-02-18T17:26:47.244Z,46.2
2023-02-18T17:28:47.247Z,44.8
2023-02-18T17:30:47.223Z,43.8
2023-02-18T17:32:47.405Z,44.4
2023-02-18T17:34:47.235Z,44.3
2023-02-18T17:36:47.266Z,43.6
2023-02-18T17:38:47.218Z,44.2
2023-02-18T17:40:47.214Z,42.5
2023-02-18T17:42:47.271Z,42.6
2023-02-18T17:44:47.315Z,43.6
2023-02-18T17:46:47.223Z,44.6
2023-02-18T17:48:47.273Z,44.3
2023-02-18T17:50:47.234Z,42.9
2023-02-18T17:52:47.240Z,43.2
2023-02-18T17:54:47.279Z,44.1
2023-02-18T17:56:47.221Z,43
2023-02-18T17:58:47.204Z,42.2
2023-02-18T18:00:47.198Z,43.7
2023-02-18T18:02:47.214Z,43.5
2023-02-18T18:04:47.215Z,43.9
2023-02-18T18:06:47.202Z,44
2023-02-18T18:08:47.183Z,44
2023-02-18T18:10:48.922Z,42.6
2023-02-18T18:12:47.201Z,43
2023-02-18T18:14:47.185Z,43.1
2023-02-18T18:16:47.258Z,42.3
2023-02-18T18:18:47.174Z,42.9
2023-02-18T18:20:47.158Z,42.8
2023-02-18T18:22:47.175Z,43.4
2023-02-18T18:24:47.198Z,44.9
2023-02-18T18:26:47.182Z,42.7
2023-02-18T18:28:47.170Z,43.1
2023-02-18T18:30:47.169Z,43.6
2023-02-18T18:32:47.165Z,44.3
2023-02-18T18:34:49.042Z,42.8
2023-02-18T18:36:47.158Z,42.2
2023-02-18T18:38:47.178Z,43.1
2023-02-18T18:40:49.767Z,43.1
2023-02-18T18:42:47.153Z,42.4
2023-02-18T18:44:47.135Z,41.9
2023-02-18T18:46:47.237Z,42.7
2023-02-18T18:48:47.137Z,41.4
2023-02-18T18:50:47.142Z,41.9
2023-02-18T18:52:47.153Z,40
2023-02-18T18:54:47.231Z,42.5
2023-02-18T18:56:47.122Z,43.3
2023-02-18T18:58:47.165Z,41.6
2023-02-18T19:00:49.819Z,41.6
2023-02-18T19:02:47.272Z,41.4
2023-02-18T19:04:47.090Z,41.9
2023-02-18T19:06:47.109Z,41.6
2023-02-18T19:08:47.140Z,41.5
2023-02-18T19:10:47.274Z,41.6
2023-02-18T19:12:47.101Z,40.8
2023-02-18T19:14:47.085Z,40
2023-02-18T19:16:47.102Z,38.9
2023-02-18T19:18:47.116Z,41.6
2023-02-18T19:20:47.113Z,41.9
2023-02-18T19:22:47.150Z,41.9
2023-02-18T19:24:47.087Z,40.4
2023-02-18T19:26:47.098Z,41.6
2023-02-18T19:28:47.066Z,41.1
2023-02-18T19:29:48.629Z,41.1
2023-02-18T19:30:47.087Z,41.7
2023-02-18T19:32:47.108Z,40.9
2023-02-18T19:34:47.131Z,40.6
2023-02-18T19:36:47.103Z,41.2
2023-02-18T19:38:47.294Z,40.8
2023-02-18T19:40:47.172Z,42
2023-02-18T19:42:13.518Z,42
2023-02-18T19:42:51.697Z,41.7
2023-02-18T19:43:36.728Z,41.7
2023-02-18T19:44:47.088Z,42.4
2023-02-18T19:46:47.369Z,42.6
2023-02-18T19:48:47.089Z,41.6
2023-02-18T19:50:47.072Z,42.1
2023-02-18T19:52:47.046Z,43.5
2023-02-18T19:54:47.068Z,42.5
2023-02-18T19:56:47.066Z,41.4
2023-02-18T19:58:47.105Z,40
2023-02-18T20:00:47.069Z,40.2
2023-02-18T20:02:47.126Z,38.8
2023-02-18T20:04:47.093Z,40.7
2023-02-18T20:06:47.038Z,41.8
2023-02-18T20:08:47.075Z,41.5
2023-02-18T20:10:47.065Z,42.8
2023-02-18T20:12:47.031Z,42.7
2023-02-18T20:14:47.029Z,43.3
2023-02-18T20:16:47.052Z,41.7
2023-02-18T20:18:47.008Z,41.6
2023-02-18T20:20:47.021Z,42.6
2023-02-18T20:22:47.078Z,42.7
2023-02-18T20:24:47.116Z,42.7
2023-02-18T20:26:47.030Z,41.3
2023-02-18T20:28:47.054Z,42.7
2023-02-18T20:30:47.005Z,43.2
2023-02-18T20:32:46.982Z,41.9
2023-02-18T20:34:46.997Z,43.1
2023-02-18T20:36:46.969Z,42.9
2023-02-18T20:38:47.005Z,43.3
2023-02-18T20:40:46.997Z,43.1
2023-02-18T20:42:47.058Z,43.2
2023-02-18T20:44:46.992Z,41.9
2023-02-18T20:46:46.996Z,41.3
2023-02-18T20:48:46.983Z,41.4
2023-02-18T20:50:47.174Z,42.1
2023-02-18T20:52:46.994Z,41.5
2023-02-18T20:54:47.055Z,39.8
2023-02-18T20:56:46.965Z,38.8
2023-02-18T20:58:46.985Z,38.7
2023-02-18T21:00:46.980Z,38.2
2023-02-18T21:02:47.026Z,39.4
2023-02-18T21:04:46.970Z,37.9
2023-02-18T21:06:46.977Z,37.2
2023-02-18T21:08:46.988Z,38
2023-02-18T21:10:46.973Z,39.3
2023-02-18T21:12:46.953Z,38.5
2023-02-18T21:14:46.993Z,39
2023-02-18T21:16:46.985Z,38.4
2023-02-18T21:18:46.952Z,38.6
2023-02-18T21:20:46.961Z,39.3
2023-02-18T21:22:46.986Z,38.8
2023-02-18T21:24:46.961Z,38.8
2023-02-18T21:26:46.939Z,39.5
2023-02-18T21:28:46.966Z,39.5
2023-02-18T21:30:46.948Z,40.5
2023-02-18T21:32:46.928Z,40.1
2023-02-18T21:34:46.932Z,40.3
2023-02-18T21:36:46.940Z,40.3
2023-02-18T21:38:46.938Z,40.3
2023-02-18T21:40:46.949Z,40.1
2023-02-18T21:42:46.907Z,40.9
2023-02-18T21:44:46.921Z,41.7
2023-02-18T21:46:47.024Z,42.1
2023-02-18T21:48:46.904Z,42.1
2023-02-18T21:50:46.886Z,42.1
2023-02-18T21:52:46.884Z,42.6
2023-02-18T21:54:46.945Z,42.3
2023-02-18T21:56:46.943Z,42.3
2023-02-18T21:58:47.017Z,42.5
2023-02-18T22:00:46.981Z,41.2
2023-02-18T22:02:46.899Z,41.7
2023-02-18T22:04:46.934Z,42.8
2023-02-18T22:06:46.915Z,41.5
2023-02-18T22:08:46.995Z,42.3
2023-02-18T22:10:46.905Z,42.8
2023-02-18T22:12:46.874Z,43.1
2023-02-18T22:14:46.886Z,43.3
2023-02-18T22:16:46.889Z,42.5
2023-02-18T22:18:46.908Z,42.5
2023-02-18T22:20:46.958Z,42.8
2023-02-18T22:22:46.934Z,43.1
2023-02-18T22:24:46.920Z,41.5
2023-02-18T22:26:46.920Z,43.2
2023-02-18T22:28:46.881Z,43.6
2023-02-18T22:30:46.858Z,44.3
2023-02-18T22:32:46.855Z,44.3
2023-02-18T22:34:46.835Z,44.8
2023-02-18T22:36:46.857Z,45.3
2023-02-18T22:38:46.856Z,45.6
2023-02-18T22:40:48.544Z,45.3
2023-02-18T22:42:46.863Z,45.5
2023-02-18T22:44:46.819Z,45.4
2023-02-18T22:46:46.838Z,45.9
2023-02-18T22:48:46.835Z,46.3
2023-02-18T22:50:46.848Z,46.4
2023-02-18T22:52:46.834Z,46.2
2023-02-18T22:54:46.867Z,45.5
2023-02-18T22:56:46.836Z,46.4
2023-02-18T22:58:46.866Z,46.8
2023-02-18T23:00:47.078Z,47.5
2023-02-18T23:02:46.939Z,47.4
2023-02-18T23:04:46.824Z,48.8
2023-02-18T23:06:46.898Z,48.1
2023-02-18T23:08:46.871Z,46.9
2023-02-18T23:10:46.803Z,47.3
2023-02-18T23:12:46.805Z,48
2023-02-18T23:14:46.828Z,48.6
2023-02-18T23:16:46.908Z,48.8
2023-02-18T23:18:47.978Z,48.4
2023-02-18T23:21:01.386Z,48.3
2023-02-18T23:22:46.792Z,48.6
2023-02-18T23:24:46.801Z,49.1
2023-02-18T23:26:46.802Z,48.8
2023-02-18T23:28:46.795Z,49.3
2023-02-18T23:30:46.838Z,49.4
2023-02-18T23:32:46.842Z,50.2
2023-02-18T23:34:46.808Z,50.3
2023-02-18T23:36:46.858Z,49.8
2023-02-18T23:38:46.771Z,50.7
2023-02-18T23:40:46.840Z,51.5
2023-02-18T23:42:48.256Z,51.2
2023-02-18T23:44:46.820Z,52.3
2023-02-18T23:46:46.849Z,51.8
2023-02-18T23:48:46.851Z,52.1
2023-02-18T23:50:46.826Z,53
2023-02-18T23:52:46.792Z,53.6
2023-02-18T23:54:46.782Z,53.4
2023-02-18T23:56:46.771Z,52.7
2023-02-18T23:58:46.692Z,53.1
